Meteo Giornale » Osservazioni meteo Svizzera » Dubendorf

ore: 14:50 - Osservazioni Meteo Dubendorf
Lat. 47° 24' N Lon. 8° 39' E Alt. 448 metri s.l.m.

sereno Europe/Zurich

20 °C

Sereno

Temp. 24 Ore

1 °C

20 °C

Ovest

9.3 Km/h

Dew point 1 °C

Umidità 28 %

Visibilità  10 Km

Il sole sorge alle ore 06:50

Il sole tramonta alle ore 20:04

Data e Ora Cielo e Fenomeni T °C DP °C Um. % Pres. hPa Vis. km Vento km/h
Oggi h: 14:50 sereno Sereno 20 1 28 1024 10 O 9.3
Oggi h: 14:20 sereno Sereno 19 1 29 1024 10 O 7.4
Oggi h: 13:50 sereno Sereno 19 1 29 1024 10 N 5.5
Oggi h: 13:20 sereno Sereno 18 2 34 1024 10 N 5.5
Oggi h: 12:50 sereno Sereno 17 3 39 1024 10 N 7.4
Oggi h: 12:20 sereno Sereno 17 2 36 1024 10 N 5.5
Oggi h: 11:50 sereno Sereno 17 2 36 1024 10 N 3.7
Oggi h: 11:20 sereno Sereno 17 3 39 1024 10 N 0
Oggi h: 10:50 sereno Sereno 15 2 41 1024 10 N 0
Oggi h: 10:20 sereno Sereno 13 3 50 1024 10 N 0
Oggi h: 09:50 sereno Sereno 10 3 61 1024 10 N 0
Oggi h: 09:20 sereno Sereno 8 2 65 1024 10 N 0
Oggi h: 08:50 sereno Sereno 7 2 70 1024 9 N 0
Oggi h: 08:20 sereno Sereno 4 1 80 1023 7 N 0
Oggi h: 07:50 sereno Sereno 3 0 80 1023 6 N 0
Oggi h: 07:20 sereno Sereno 2 -1 80 1023 10 N 0
Oggi h: 06:50 sereno Sereno 2 -0 86 1022 10 N 3.7
Oggi h: 05:50 sereno Sereno 1 -2 80 1022 10 N 5.5
Oggi h: 05:20 sereno Sereno 2 -0 86 1022 10 N 0
Oggi h: 04:50 sereno Sereno 2 -1 80 1021 10 N 3.7
Oggi h: 04:20 sereno Sereno 3 -0 80 1021 10 N 3.7
Oggi h: 03:50 sereno Sereno 2 -1 80 1021 10 N 0
Oggi h: 03:20 sereno Sereno 4 0 75 1021 10 N 0
Oggi h: 02:50 sereno Sereno 4 0 75 1020 10 N 3.7
Oggi h: 02:20 sereno Sereno 4 0 75 1020 10 N 3.7
Oggi h: 01:50 sereno Sereno 3 -1 74 1020 10 N 5.5
Oggi h: 01:20 sereno Sereno 5 1 75 1020 10 N 1.8
Oggi h: 00:50 sereno Sereno 5 0 70 1020 10 N 0
Oggi h: 00:20 sereno Sereno 6 1 70 1020 10 N 0
Ieri h: 23:50 sereno Sereno 7 1 65 1020 10 N 0
Ieri h: 23:20 sereno Sereno 6 0 65 1019 10 N 0
Ieri h: 22:50 sereno Sereno 8 1 61 1019 10 N 3.7
Ieri h: 22:20 sereno Sereno 7 0 60 1019 10 N 1.8
Ieri h: 21:50 sereno Sereno 10 0 49 1019 10 N 3.7
Ieri h: 21:20 sereno Sereno 12 0 43 1019 10 N 3.7
Ieri h: 20:50 sereno Sereno 11 1 50 1019 10 N 3.7
Ieri h: 20:20 sereno Sereno 15 -2 30 1019 10 N 0
Ieri h: 19:50 sereno Sereno 16 -2 29 1019 10 E/NE 7.4
Ieri h: 19:20 sereno Sereno 17 -1 29 1019 10 E 13
Ieri h: 18:50 sereno Sereno 17 0 31 1019 10 E/NE 7.4
Ieri h: 18:20 sereno Sereno 18 -2 25 1019 10 NE 9.3
Ieri h: 17:50 sereno Sereno 18 -4 22 1019 10 E 13
Ieri h: 17:20 sereno Sereno 18 -1 27 1019 10 E/NE 11.1
Ieri h: 16:50 sereno Sereno 18 1 31 1020 10 N 7.4
Ieri h: 16:20 sereno Sereno 18 -2 25 1020 10 N 7.4
Ieri h: 15:50 sereno Sereno 18 -1 27 1020 10 E/NE 9.3